Time;durP1;ratioP1;P1;durP2;ratioP2;P2;SDS_P1;SDS_P2;PMS_P1;PMS_P2;Temp;Humidity;BMP_temperature;BMP_pressure;BME280_temperature;BME280_humidity;BME280_pressure;Samples;Min_cycle;Max_cycle;Signal;HPM_P1;HPM_P2
2022/09/23 00:01:47;;;;;;;96.38;36.42;;;;;;;;;;6213211;28;20054;-62
2022/09/23 00:04:48;;;;;;;96.32;36.67;;;;;;;;;;6210277;28;20097;-61
2022/09/23 00:07:48;;;;;;;86.15;37.05;;;;;;;;;;6211867;28;20049;-61
2022/09/23 00:10:49;;;;;;;97.15;36.03;;;;;;;;;;6215748;28;20684;-61
2022/09/23 00:13:54;;;;;;;93.55;35.55;;;;;;;;;;6214668;28;20057;-62
2022/09/23 00:16:54;;;;;;;92.88;36.35;;;;;;;;;;6211682;28;20045;-61
2022/09/23 00:19:55;;;;;;;86.28;34.08;;;;;;;;;;6212072;28;20181;-61
2022/09/23 00:22:56;;;;;;;92.00;36.47;;;;;;;;;;6212924;28;20116;-61
2022/09/23 00:25:58;;;;;;;89.00;34.80;;;;;;;;;;6208617;28;20042;-61
2022/09/23 00:28:59;;;;;;;94.80;36.80;;;;;;;;;;6211164;28;20034;-61
2022/09/23 00:31:59;;;;;;;93.80;36.10;;;;;;;;;;6212942;28;20141;-61
2022/09/23 00:35:02;;;;;;;84.63;34.78;;;;;;;;;;6210751;28;20511;-61
2022/09/23 00:38:03;;;;;;;85.38;33.78;;;;;;;;;;6212866;28;20046;-61
2022/09/23 00:41:05;;;;;;;90.43;35.95;;;;;;;;;;6215197;28;20157;-61
2022/09/23 00:44:44;;;;;;;99.97;37.35;;;;;;;;;;6213886;28;20095;-61
2022/09/23 00:47:49;;;;;;;86.40;33.55;;;;;;;;;;6207352;28;20421;-61
2022/09/23 00:50:53;;;;;;;92.07;34.28;;;;;;;;;;6217503;28;20133;-62
2022/09/23 00:53:54;;;;;;;81.80;33.28;;;;;;;;;;6218245;28;20104;-61
2022/09/23 00:56:57;;;;;;;77.22;31.92;;;;;;;;;;6211654;28;20050;-62
2022/09/23 00:59:58;;;;;;;85.22;34.03;;;;;;;;;;6210651;28;20046;-60
2022/09/23 01:03:00;;;;;;;80.65;32.60;;;;;;;;;;6211165;28;20048;-61
2022/09/23 01:06:01;;;;;;;77.28;31.20;;;;;;;;;;6215340;28;20409;-62
2022/09/23 01:09:02;;;;;;;76.13;29.83;;;;;;;;;;6207002;28;20042;-61
2022/09/23 01:12:02;;;;;;;70.63;29.40;;;;;;;;;;6210105;28;20069;-61
2022/09/23 01:15:13;;;;;;;77.13;29.83;;;;;;;;;;6210722;28;20048;-61
2022/09/23 01:18:32;;;;;;;68.15;28.17;;;;;;;;;;6212244;28;20188;-62
2022/09/23 01:21:57;;;;;;;76.93;29.88;;;;;;;;;;6207888;28;20141;-61
2022/09/23 01:25:22;;;;;;;66.93;28.50;;;;;;;;;;6209918;28;20451;-61
2022/09/23 01:28:35;;;;;;;72.35;30.40;;;;;;;;;;6208738;28;20049;-61
2022/09/23 01:31:35;;;;;;;70.00;29.73;;;;;;;;;;6210667;28;20058;-62
2022/09/23 01:34:58;;;;;;;79.65;29.83;;;;;;;;;;6208809;28;20493;-61
2022/09/23 01:38:09;;;;;;;73.10;29.13;;;;;;;;;;6208562;28;20056;-60
2022/09/23 01:41:18;;;;;;;73.85;30.95;;;;;;;;;;6212118;28;20056;-61
2022/09/23 01:44:33;;;;;;;71.07;30.33;;;;;;;;;;6210720;28;20148;-61
2022/09/23 01:47:38;;;;;;;68.93;30.30;;;;;;;;;;6209568;28;20519;-61
2022/09/23 01:50:56;;;;;;;66.82;29.20;;;;;;;;;;6209937;28;20077;-61
2022/09/23 01:54:14;;;;;;;74.63;30.60;;;;;;;;;;6213177;28;20531;-61
2022/09/23 01:57:20;;;;;;;76.22;30.88;;;;;;;;;;6209522;28;20403;-61
2022/09/23 02:00:22;;;;;;;69.22;30.92;;;;;;;;;;6211342;28;20557;-62
2022/09/23 02:03:28;;;;;;;73.30;31.20;;;;;;;;;;6211674;28;20056;-61
2022/09/23 02:06:33;;;;;;;80.55;33.17;;;;;;;;;;6213955;28;20200;-61
2022/09/23 02:09:41;;;;;;;77.00;32.13;;;;;;;;;;6208496;28;20077;-61
2022/09/23 02:12:46;;;;;;;79.68;31.67;;;;;;;;;;6209306;28;20058;-61
2022/09/23 02:15:52;;;;;;;76.88;31.88;;;;;;;;;;6211119;28;20050;-61
2022/09/23 02:18:58;;;;;;;85.72;33.85;;;;;;;;;;6207278;28;20038;-62
2022/09/23 02:22:14;;;;;;;85.18;32.97;;;;;;;;;;6208952;28;20065;-62
2022/09/23 02:25:16;;;;;;;81.97;32.25;;;;;;;;;;6209030;28;20085;-60
2022/09/23 02:28:42;;;;;;;82.47;32.83;;;;;;;;;;6209202;28;20073;-61
2022/09/23 02:31:48;;;;;;;86.30;32.50;;;;;;;;;;6208497;28;20085;-61
2022/09/23 02:34:59;;;;;;;82.85;33.63;;;;;;;;;;6213185;28;20042;-61
2022/09/23 02:38:21;;;;;;;84.75;32.38;;;;;;;;;;6211140;28;20539;-61
2022/09/23 02:41:36;;;;;;;82.70;33.50;;;;;;;;;;6214189;28;20053;-61
2022/09/23 02:44:36;;;;;;;75.20;33.83;;;;;;;;;;6212923;28;20398;-62
2022/09/23 02:47:40;;;;;;;86.85;33.80;;;;;;;;;;6212817;28;20095;-61
2022/09/23 02:50:41;;;;;;;84.82;34.00;;;;;;;;;;6215427;28;20064;-61
2022/09/23 02:53:44;;;;;;;83.20;33.00;;;;;;;;;;6211619;28;20125;-61
2022/09/23 02:56:48;;;;;;;86.15;33.92;;;;;;;;;;6212209;28;20048;-61
2022/09/23 02:59:48;;;;;;;80.45;32.30;;;;;;;;;;6214311;28;20042;-62
2022/09/23 03:03:05;;;;;;;78.43;31.48;;;;;;;;;;6214501;28;20081;-61
2022/09/23 03:06:41;;;;;;;89.53;35.00;;;;;;;;;;6211455;28;20038;-62
2022/09/23 03:10:01;;;;;;;80.45;32.20;;;;;;;;;;6204560;28;20080;-61
2022/09/23 03:13:25;;;;;;;82.70;32.53;;;;;;;;;;6217446;28;21956;-61
2022/09/23 03:16:42;;;;;;;81.90;33.22;;;;;;;;;;6213729;28;20129;-61
2022/09/23 03:19:55;;;;;;;86.95;33.17;;;;;;;;;;6214686;28;20456;-61
2022/09/23 03:23:01;;;;;;;94.18;35.15;;;;;;;;;;6211147;28;20499;-62
2022/09/23 03:26:09;;;;;;;86.80;32.70;;;;;;;;;;6212081;28;20050;-61
2022/09/23 03:29:11;;;;;;;83.68;34.88;;;;;;;;;;6213088;28;20136;-61
2022/09/23 03:32:14;;;;;;;85.13;32.50;;;;;;;;;;6212258;28;20050;-61
2022/09/23 03:35:16;;;;;;;83.32;33.22;;;;;;;;;;6212522;28;20217;-61
2022/09/23 03:38:16;;;;;;;83.55;33.38;;;;;;;;;;6213189;28;20284;-61
2022/09/23 03:41:27;;;;;;;87.60;34.20;;;;;;;;;;6213134;28;20045;-61
2022/09/23 03:44:28;;;;;;;87.30;33.00;;;;;;;;;;6211502;28;20041;-61
2022/09/23 03:47:30;;;;;;;81.93;33.38;;;;;;;;;;6215878;28;20159;-61
2022/09/23 03:50:30;;;;;;;80.55;32.33;;;;;;;;;;6212648;28;20173;-61
2022/09/23 03:53:31;;;;;;;81.40;31.85;;;;;;;;;;6211896;28;20093;-61
2022/09/23 03:56:31;;;;;;;81.80;31.02;;;;;;;;;;6212353;28;20460;-61
2022/09/23 03:59:32;;;;;;;81.22;30.95;;;;;;;;;;6212896;28;20072;-61
2022/09/23 04:02:33;;;;;;;80.78;30.63;;;;;;;;;;6216312;28;20425;-61
2022/09/23 04:05:34;;;;;;;75.93;30.88;;;;;;;;;;6211373;28;20136;-61
2022/09/23 04:08:35;;;;;;;91.03;32.60;;;;;;;;;;6212284;28;20478;-61
2022/09/23 04:11:36;;;;;;;75.63;29.35;;;;;;;;;;6210819;28;20046;-61
2022/09/23 04:14:36;;;;;;;77.25;31.55;;;;;;;;;;6211949;28;20408;-61
2022/09/23 04:17:37;;;;;;;79.95;30.73;;;;;;;;;;6212793;28;20072;-61
2022/09/23 04:20:38;;;;;;;74.60;29.25;;;;;;;;;;6215526;28;20493;-61
2022/09/23 04:23:38;;;;;;;75.85;30.25;;;;;;;;;;6217056;28;20411;-61
2022/09/23 04:26:40;;;;;;;79.38;30.10;;;;;;;;;;6214361;28;20038;-61
2022/09/23 04:29:40;;;;;;;79.75;33.70;;;;;;;;;;6224983;28;20052;-61
2022/09/23 04:32:41;;;;;;;75.53;30.05;;;;;;;;;;6224742;28;20041;-61
2022/09/23 04:35:42;;;;;;;82.50;31.20;;;;;;;;;;6217623;28;20042;-61
2022/09/23 04:38:44;;;;;;;78.75;29.83;;;;;;;;;;6218347;28;20507;-61
2022/09/23 04:41:45;;;;;;;74.53;30.27;;;;;;;;;;6212967;28;20140;-61
2022/09/23 04:44:45;;;;;;;71.47;29.27;;;;;;;;;;6215115;28;20054;-61
2022/09/23 04:47:46;;;;;;;78.18;31.85;;;;;;;;;;6214324;28;20184;-61
2022/09/23 04:50:47;;;;;;;77.03;29.30;;;;;;;;;;6215949;28;20663;-62
2022/09/23 04:53:50;;;;;;;79.32;29.88;;;;;;;;;;6211475;28;20056;-62
2022/09/23 04:56:51;;;;;;;86.00;32.13;;;;;;;;;;6212863;28;20041;-62
2022/09/23 04:59:54;;;;;;;106.93;33.63;;;;;;;;;;6211526;28;20153;-62
2022/09/23 05:02:55;;;;;;;75.60;28.88;;;;;;;;;;6210594;28;21955;-62
2022/09/23 05:05:58;;;;;;;80.22;31.13;;;;;;;;;;6211651;28;20085;-61
2022/09/23 05:08:59;;;;;;;85.68;29.33;;;;;;;;;;6214410;28;20078;-61
2022/09/23 05:12:01;;;;;;;76.75;30.45;;;;;;;;;;6214710;28;20056;-61
2022/09/23 05:15:01;;;;;;;85.13;28.92;;;;;;;;;;6216481;28;20050;-61
2022/09/23 05:18:02;;;;;;;87.63;31.65;;;;;;;;;;6216898;28;20042;-62
2022/09/23 05:21:03;;;;;;;75.43;30.83;;;;;;;;;;6216993;28;20065;-63
2022/09/23 05:24:04;;;;;;;75.65;29.45;;;;;;;;;;6215837;28;20136;-62
2022/09/23 05:27:07;;;;;;;81.53;31.65;;;;;;;;;;6217169;28;20148;-61
2022/09/23 05:30:08;;;;;;;82.53;35.40;;;;;;;;;;6217187;28;20479;-63
2022/09/23 05:33:09;;;;;;;93.63;38.53;;;;;;;;;;6215750;28;20046;-63
2022/09/23 05:36:12;;;;;;;85.40;34.33;;;;;;;;;;6215394;28;20056;-62
2022/09/23 05:39:12;;;;;;;82.87;36.73;;;;;;;;;;6202800;28;20052;-63
2022/09/23 05:42:14;;;;;;;102.43;42.65;;;;;;;;;;6210561;28;20394;-66
2022/09/23 05:45:14;;;;;;;81.90;34.30;;;;;;;;;;6210135;28;20037;-64
2022/09/23 05:48:15;;;;;;;79.85;35.45;;;;;;;;;;6209202;28;20184;-64
2022/09/23 05:51:18;;;;;;;81.40;34.15;;;;;;;;;;6211182;28;20042;-63
2022/09/23 05:54:20;;;;;;;90.75;37.25;;;;;;;;;;6211032;28;20061;-64
2022/09/23 05:57:20;;;;;;;130.02;54.92;;;;;;;;;;6214050;28;20485;-63
2022/09/23 06:00:21;;;;;;;115.22;46.50;;;;;;;;;;6215753;28;20049;-63
2022/09/23 06:03:23;;;;;;;121.13;47.10;;;;;;;;;;6214517;28;20045;-63
2022/09/23 06:06:28;;;;;;;109.22;42.40;;;;;;;;;;6215597;28;21351;-64
2022/09/23 06:09:29;;;;;;;105.00;42.53;;;;;;;;;;6215834;28;20111;-63
2022/09/23 06:12:30;;;;;;;108.50;40.67;;;;;;;;;;6215348;28;20046;-64
2022/09/23 06:15:31;;;;;;;99.78;40.35;;;;;;;;;;6214749;28;20057;-63
2022/09/23 06:18:33;;;;;;;104.10;41.43;;;;;;;;;;6214262;28;20053;-63
2022/09/23 06:21:37;;;;;;;90.70;37.35;;;;;;;;;;6215312;28;20476;-63
2022/09/23 06:24:37;;;;;;;89.82;35.35;;;;;;;;;;6215635;28;20072;-64
2022/09/23 06:27:38;;;;;;;91.53;37.58;;;;;;;;;;6215495;28;20042;-63
2022/09/23 06:30:39;;;;;;;81.03;35.78;;;;;;;;;;6215911;28;20050;-63
2022/09/23 06:33:44;;;;;;;87.70;35.65;;;;;;;;;;6214270;28;20054;-64
2022/09/23 06:36:45;;;;;;;87.10;35.50;;;;;;;;;;6215279;28;20041;-63
2022/09/23 06:39:45;;;;;;;90.68;36.25;;;;;;;;;;6215639;28;20093;-64
2022/09/23 06:42:47;;;;;;;84.45;34.45;;;;;;;;;;6212881;28;20476;-64
2022/09/23 06:45:52;;;;;;;;;;;;;;;;;;6208258;28;20065;-63
2022/09/23 06:48:53;;;;;;;74.90;32.72;;;;;;;;;;6212190;28;19967;-63
2022/09/23 06:51:54;;;;;;;81.22;31.75;;;;;;;;;;6208573;28;20038;-64
2022/09/23 06:54:55;;;;;;;77.10;32.35;;;;;;;;;;6212339;28;20046;-64
2022/09/23 06:57:59;;;;;;;85.45;32.08;;;;;;;;;;6214314;28;20070;-63
2022/09/23 07:01:01;;;;;;;81.82;31.50;;;;;;;;;;6209268;28;20145;-63
2022/09/23 07:04:01;;;;;;;79.30;29.65;;;;;;;;;;6206230;28;20073;-63
2022/09/23 07:07:02;;;;;;;70.97;28.70;;;;;;;;;;6208687;28;20554;-63
2022/09/23 07:10:04;;;;;;;79.00;30.25;;;;;;;;;;6193721;28;20444;-63
2022/09/23 07:13:05;;;;;;;67.95;27.83;;;;;;;;;;6207660;28;20053;-64
2022/09/23 07:16:06;;;;;;;70.78;27.75;;;;;;;;;;6206682;28;20065;-63
2022/09/23 07:19:06;;;;;;;63.47;24.90;;;;;;;;;;6211176;28;20096;-63
2022/09/23 07:22:07;;;;;;;59.72;23.23;;;;;;;;;;6213371;28;20045;-63
2022/09/23 07:25:10;;;;;;;55.13;21.50;;;;;;;;;;6210239;28;20107;-64
2022/09/23 07:28:10;;;;;;;53.88;21.95;;;;;;;;;;6208007;28;20124;-63
2022/09/23 07:31:14;;;;;;;50.25;21.98;;;;;;;;;;6211038;28;20061;-63
2022/09/23 07:34:15;;;;;;;56.95;22.83;;;;;;;;;;6208591;28;20053;-64
2022/09/23 07:37:16;;;;;;;56.28;22.10;;;;;;;;;;6212277;28;20133;-64
2022/09/23 07:40:17;;;;;;;56.70;23.17;;;;;;;;;;6212953;28;20046;-64
2022/09/23 07:43:18;;;;;;;66.88;25.08;;;;;;;;;;6212241;28;20589;-65
2022/09/23 07:46:18;;;;;;;60.92;25.70;;;;;;;;;;6210920;28;20042;-64
2022/09/23 07:49:19;;;;;;;49.70;21.77;;;;;;;;;;6212620;28;20056;-64
2022/09/23 07:52:19;;;;;;;67.93;23.98;;;;;;;;;;6209483;28;20042;-64
2022/09/23 07:55:20;;;;;;;56.00;23.35;;;;;;;;;;6206139;28;20576;-64
2022/09/23 07:58:21;;;;;;;51.00;21.60;;;;;;;;;;6211210;28;20042;-64
2022/09/23 08:01:22;;;;;;;59.40;23.45;;;;;;;;;;6210669;28;20073;-64
2022/09/23 08:04:28;;;;;;;49.75;20.30;;;;;;;;;;6211867;28;20088;-64
2022/09/23 08:07:29;;;;;;;41.20;17.85;;;;;;;;;;6210539;28;20470;-65
2022/09/23 08:10:29;;;;;;;42.53;18.13;;;;;;;;;;6212234;28;20042;-64
2022/09/23 08:13:31;;;;;;;41.13;19.02;;;;;;;;;;6210330;28;20049;-65
2022/09/23 08:16:31;;;;;;;40.42;18.38;;;;;;;;;;6206567;28;20409;-64
2022/09/23 08:19:32;;;;;;;41.55;17.42;;;;;;;;;;6211671;28;20054;-63
2022/09/23 08:22:32;;;;;;;42.63;19.05;;;;;;;;;;6209567;28;20056;-64
2022/09/23 08:25:33;;;;;;;47.40;20.40;;;;;;;;;;6207193;28;20050;-64
2022/09/23 08:28:34;;;;;;;45.40;18.85;;;;;;;;;;6208705;28;20045;-64
2022/09/23 08:31:34;;;;;;;43.33;18.65;;;;;;;;;;6210198;28;20053;-63
2022/09/23 08:34:35;;;;;;;43.42;17.38;;;;;;;;;;6209312;28;20111;-63
2022/09/23 08:37:35;;;;;;;38.63;16.65;;;;;;;;;;6209007;28;20050;-63
2022/09/23 08:40:39;;;;;;;40.35;17.23;;;;;;;;;;6217766;28;20042;-60
2022/09/23 08:43:46;;;;;;;40.38;17.08;;;;;;;;;;6216511;28;20046;-63
2022/09/23 08:47:27;;;;;;;33.72;15.48;;;;;;;;;;6217185;28;20093;-63
2022/09/23 08:50:54;;;;;;;36.13;16.42;;;;;;;;;;6214301;28;20061;-62
2022/09/23 08:53:54;;;;;;;38.30;17.45;;;;;;;;;;6216287;28;20057;-63
2022/09/23 08:56:58;;;;;;;36.72;16.80;;;;;;;;;;6214043;28;20826;-63
2022/09/23 09:00:01;;;;;;;34.03;16.20;;;;;;;;;;6213597;28;20044;-63
2022/09/23 09:03:11;;;;;;;42.20;18.85;;;;;;;;;;6210649;28;20049;-63
2022/09/23 09:06:38;;;;;;;41.17;18.50;;;;;;;;;;6211534;28;20057;-62
2022/09/23 09:09:45;;;;;;;40.60;18.52;;;;;;;;;;6212777;28;20046;-66
2022/09/23 09:12:49;;;;;;;39.88;18.50;;;;;;;;;;6214137;28;20038;-64
2022/09/23 09:16:14;;;;;;;43.28;19.70;;;;;;;;;;6215231;28;20060;-65
2022/09/23 09:19:51;;;;;;;42.30;17.38;;;;;;;;;;6214247;28;20501;-64
2022/09/23 09:22:58;;;;;;;43.42;19.88;;;;;;;;;;6211235;28;20140;-64
2022/09/23 09:26:04;;;;;;;40.67;19.02;;;;;;;;;;6213853;28;20045;-62
2022/09/23 09:29:12;;;;;;;40.03;18.35;;;;;;;;;;6214715;28;20038;-64
2022/09/23 09:32:34;;;;;;;37.38;17.50;;;;;;;;;;6214938;28;20738;-63
2022/09/23 09:35:52;;;;;;;32.10;15.00;;;;;;;;;;6212232;28;20155;-64
2022/09/23 09:38:52;;;;;;;34.30;15.13;;;;;;;;;;6212550;28;20038;-64
2022/09/23 09:41:57;;;;;;;32.28;14.50;;;;;;;;;;6213987;28;20533;-63
2022/09/23 09:45:01;;;;;;;35.00;14.95;;;;;;;;;;6214250;28;20077;-63
2022/09/23 09:48:13;;;;;;;25.42;12.52;;;;;;;;;;6211069;28;20056;-63
2022/09/23 09:51:20;;;;;;;22.13;10.50;;;;;;;;;;6214007;28;20139;-63
2022/09/23 09:54:23;;;;;;;27.05;11.45;;;;;;;;;;6214816;28;20133;-63
2022/09/23 09:57:30;;;;;;;23.80;10.43;;;;;;;;;;6214368;28;20050;-62
2022/09/23 10:00:35;;;;;;;26.40;11.32;;;;;;;;;;6213556;28;20412;-63
2022/09/23 10:03:42;;;;;;;29.63;15.07;;;;;;;;;;6214578;28;20099;-63
2022/09/23 10:07:03;;;;;;;45.97;20.13;;;;;;;;;;6214628;28;20140;-63
2022/09/23 10:10:30;;;;;;;46.40;19.70;;;;;;;;;;6213716;28;20049;-63
2022/09/23 10:13:31;;;;;;;38.47;17.73;;;;;;;;;;6209622;28;20576;-63
2022/09/23 10:16:33;;;;;;;39.17;16.38;;;;;;;;;;6212537;28;20094;-63
2022/09/23 10:19:36;;;;;;;39.20;16.85;;;;;;;;;;6213174;28;20165;-65
2022/09/23 10:22:41;;;;;;;45.15;18.92;;;;;;;;;;6210797;28;20103;-63
2022/09/23 10:25:42;;;;;;;43.95;18.90;;;;;;;;;;6212971;28;20141;-63
2022/09/23 10:28:50;;;;;;;33.33;15.90;;;;;;;;;;6212318;28;20046;-63
2022/09/23 10:32:19;;;;;;;38.92;18.33;;;;;;;;;;6212451;28;20074;-62
2022/09/23 10:35:22;;;;;;;40.08;16.83;;;;;;;;;;6212565;28;20547;-63
2022/09/23 10:38:23;;;;;;;40.53;16.80;;;;;;;;;;6213514;28;20046;-62
2022/09/23 10:49:11;;;;;;;44.15;19.35;;;;;;;;;;6208957;28;20157;-63
2022/09/23 10:52:34;;;;;;;30.60;11.93;;;;;;;;;;6212321;28;20854;-64
2022/09/23 10:55:51;;;;;;;26.17;11.85;;;;;;;;;;6217255;28;20041;-63
2022/09/23 10:59:05;;;;;;;26.83;10.98;;;;;;;;;;6217258;28;20049;-62
2022/09/23 11:02:09;;;;;;;19.23;9.43;;;;;;;;;;6216181;28;20046;-62
2022/09/23 11:05:43;;;;;;;27.90;12.45;;;;;;;;;;6216413;28;20077;-63
2022/09/23 11:09:02;;;;;;;38.67;16.52;;;;;;;;;;6216091;28;20056;-62
2022/09/23 11:12:28;;;;;;;37.42;17.35;;;;;;;;;;6217153;28;20441;-63
2022/09/23 11:15:54;;;;;;;46.92;20.80;;;;;;;;;;6216409;28;20062;-62
2022/09/23 11:19:23;;;;;;;42.33;18.98;;;;;;;;;;6215467;28;20057;-63
2022/09/23 11:22:42;;;;;;;42.67;19.48;;;;;;;;;;6216249;28;20046;-62
2022/09/23 11:25:55;;;;;;;39.20;16.52;;;;;;;;;;6216983;28;20090;-64
2022/09/23 11:28:56;;;;;;;36.22;16.58;;;;;;;;;;6216857;28;20042;-64
2022/09/23 11:32:15;;;;;;;39.33;16.80;;;;;;;;;;6225707;28;20103;-63
2022/09/23 11:35:34;;;;;;;38.42;16.73;;;;;;;;;;6214178;28;20137;-63
2022/09/23 11:38:43;;;;;;;32.15;15.98;;;;;;;;;;6215308;28;20061;-63
2022/09/23 11:41:45;;;;;;;35.85;17.02;;;;;;;;;;6216643;28;20132;-63
2022/09/23 11:45:15;;;;;;;37.05;16.70;;;;;;;;;;6214880;28;20111;-62
2022/09/23 11:48:24;;;;;;;31.73;14.70;;;;;;;;;;6211627;28;20038;-62
2022/09/23 11:51:37;;;;;;;32.70;14.20;;;;;;;;;;6217020;28;20168;-62
2022/09/23 11:54:41;;;;;;;;;;;;;;;;;;6217989;28;20070;-62
2022/09/23 11:57:50;;;;;;;35.70;13.65;;;;;;;;;;6214267;28;19972;-62
2022/09/23 12:00:57;;;;;;;29.85;13.63;;;;;;;;;;6217137;28;20081;-62
2022/09/23 12:04:17;;;;;;;32.42;13.57;;;;;;;;;;6215327;28;20520;-63
2022/09/23 12:07:23;;;;;;;30.88;13.00;;;;;;;;;;6215470;28;20046;-62
2022/09/23 12:10:50;;;;;;;30.88;12.95;;;;;;;;;;6213563;28;20046;-63
2022/09/23 12:13:54;;;;;;;32.83;14.63;;;;;;;;;;6215212;28;20072;-62
2022/09/23 12:16:54;;;;;;;32.63;13.93;;;;;;;;;;6217536;28;20147;-62
2022/09/23 12:20:01;;;;;;;33.08;15.48;;;;;;;;;;6216837;28;20045;-63
2022/09/23 12:23:26;;;;;;;27.00;14.18;;;;;;;;;;6217512;28;20034;-63
2022/09/23 12:26:28;;;;;;;25.13;12.80;;;;;;;;;;6217939;28;20144;-62
2022/09/23 12:29:30;;;;;;;;;;;;;;;;;;6217501;28;20144;-63
2022/09/23 12:32:32;;;;;;;29.38;14.30;;;;;;;;;;6215784;28;19929;-63
2022/09/23 12:35:40;;;;;;;39.50;14.20;;;;;;;;;;6216774;28;20595;-63
2022/09/23 12:38:50;;;;;;;32.17;14.10;;;;;;;;;;6217099;28;20045;-63
2022/09/23 12:42:16;;;;;;;31.80;14.25;;;;;;;;;;6217346;28;20489;-63
2022/09/23 12:45:38;;;;;;;27.83;13.30;;;;;;;;;;6212451;28;20447;-63
2022/09/23 12:48:56;;;;;;;24.40;12.57;;;;;;;;;;6216057;28;20065;-63
2022/09/23 12:52:15;;;;;;;24.55;12.93;;;;;;;;;;6216381;28;20053;-63
2022/09/23 12:55:25;;;;;;;22.27;11.45;;;;;;;;;;6217399;28;20073;-63
2022/09/23 12:58:36;;;;;;;23.80;11.55;;;;;;;;;;6214494;28;20137;-63
2022/09/23 13:01:37;;;;;;;24.02;11.40;;;;;;;;;;6215664;28;20772;-63
2022/09/23 13:08:08;;;;;;;28.27;12.20;;;;;;;;;;6214779;28;20061;-63
2022/09/23 13:11:21;;;;;;;26.40;11.63;;;;;;;;;;6213922;28;20073;-63
2022/09/23 13:14:23;;;;;;;23.00;11.52;;;;;;;;;;6216209;28;20136;-63
2022/09/23 13:17:36;;;;;;;25.75;12.05;;;;;;;;;;6212725;28;20404;-63
2022/09/23 13:20:37;;;;;;;25.35;11.90;;;;;;;;;;6214427;28;20092;-63
2022/09/23 13:23:38;;;;;;;27.60;12.02;;;;;;;;;;6214111;28;20482;-63
2022/09/23 13:26:42;;;;;;;24.95;12.25;;;;;;;;;;6213849;28;20050;-63
2022/09/23 13:29:52;;;;;;;25.92;12.05;;;;;;;;;;6214786;28;20042;-64
2022/09/23 13:33:05;;;;;;;27.80;12.65;;;;;;;;;;6214119;28;20148;-63
2022/09/23 13:36:11;;;;;;;23.10;10.85;;;;;;;;;;6214054;28;20050;-64
2022/09/23 13:39:21;;;;;;;19.38;10.73;;;;;;;;;;6214449;28;20145;-63
2022/09/23 13:42:27;;;;;;;23.45;10.57;;;;;;;;;;6213830;28;20170;-64
2022/09/23 13:45:32;;;;;;;22.85;10.85;;;;;;;;;;6213292;28;20034;-63
2022/09/23 13:48:33;;;;;;;21.73;10.95;;;;;;;;;;6214935;28;20060;-64
2022/09/23 13:51:34;;;;;;;30.10;13.07;;;;;;;;;;6214484;28;20144;-65
2022/09/23 13:54:49;;;;;;;33.10;14.03;;;;;;;;;;6212157;28;20089;-64
2022/09/23 13:58:03;;;;;;;33.67;14.63;;;;;;;;;;6212709;28;20045;-62
2022/09/23 14:01:09;;;;;;;27.63;12.43;;;;;;;;;;6213004;28;20046;-62
2022/09/23 14:04:23;;;;;;;36.28;14.25;;;;;;;;;;6213478;28;20100;-63
2022/09/23 14:07:24;;;;;;;29.45;12.27;;;;;;;;;;6211802;28;20045;-63
2022/09/23 14:10:27;;;;;;;26.55;11.57;;;;;;;;;;6214232;28;20054;-62
2022/09/23 14:13:31;;;;;;;32.78;13.52;;;;;;;;;;6214085;28;20520;-62
2022/09/23 14:16:36;;;;;;;27.58;11.73;;;;;;;;;;6213231;28;20405;-62
2022/09/23 14:19:36;;;;;;;26.95;13.00;;;;;;;;;;6211181;28;20084;-62
2022/09/23 14:22:37;;;;;;;26.95;12.60;;;;;;;;;;6213360;28;20501;-62
2022/09/23 14:25:38;;;;;;;27.63;13.52;;;;;;;;;;6214189;28;20093;-62
2022/09/23 14:28:39;;;;;;;25.75;12.85;;;;;;;;;;6219185;28;20577;-61
2022/09/23 14:31:41;;;;;;;27.02;14.00;;;;;;;;;;6220828;28;20169;-62
2022/09/23 14:35:05;;;;;;;22.92;11.45;;;;;;;;;;6219677;28;20551;-62
2022/09/23 14:41:26;;;;;;;19.33;9.82;;;;;;;;;;6219595;28;20073;-62
2022/09/23 14:44:28;;;;;;;24.00;11.02;;;;;;;;;;6220264;28;20537;-63
2022/09/23 14:47:30;;;;;;;18.98;9.57;;;;;;;;;;6219917;28;20205;-63
2022/09/23 14:50:46;;;;;;;;;;;;;;;;;;6219880;28;20057;-61
2022/09/23 14:53:47;;;;;;;22.17;10.43;;;;;;;;;;6220061;28;19994;-63
2022/09/23 14:56:48;;;;;;;26.52;10.68;;;;;;;;;;6219473;28;20053;-61
2022/09/23 15:00:07;;;;;;;34.03;13.65;;;;;;;;;;6217691;28;20120;-61
2022/09/23 15:03:15;;;;;;;20.48;8.95;;;;;;;;;;6218564;28;20489;-61
2022/09/23 15:06:16;;;;;;;26.05;11.48;;;;;;;;;;6219919;28;20486;-62
2022/09/23 15:09:22;;;;;;;22.95;10.20;;;;;;;;;;6218816;28;20076;-64
2022/09/23 15:12:24;;;;;;;21.30;9.95;;;;;;;;;;6218467;28;20140;-64
2022/09/23 15:15:27;;;;;;;22.27;10.40;;;;;;;;;;6216781;28;20486;-64
2022/09/23 15:18:31;;;;;;;24.95;12.68;;;;;;;;;;6217314;28;20540;-62
2022/09/23 15:21:41;;;;;;;23.85;11.48;;;;;;;;;;6219167;28;20571;-63
2022/09/23 15:24:43;;;;;;;31.08;10.80;;;;;;;;;;6219001;28;20081;-60
2022/09/23 15:28:17;;;;;;;24.48;9.80;;;;;;;;;;6200069;28;20042;-55
2022/09/23 15:31:19;;;;;;;25.00;10.52;;;;;;;;;;6200882;28;20136;-59
2022/09/23 15:34:20;;;;;;;23.75;10.90;;;;;;;;;;6199931;28;20501;-59
2022/09/23 15:37:21;;;;;;;23.20;10.25;;;;;;;;;;6193001;28;20524;-63
2022/09/23 15:40:27;;;;;;;21.17;10.15;;;;;;;;;;6193743;28;20043;-62
2022/09/23 15:43:28;;;;;;;19.60;9.02;;;;;;;;;;6198290;28;20048;-60
2022/09/23 15:46:29;;;;;;;21.52;9.70;;;;;;;;;;6194840;28;20043;-59
2022/09/23 15:49:40;;;;;;;20.77;9.98;;;;;;;;;;6193690;28;20050;-59
2022/09/23 15:52:43;;;;;;;22.40;11.10;;;;;;;;;;6201777;28;20158;-62
2022/09/23 15:55:44;;;;;;;21.83;10.77;;;;;;;;;;6195938;28;20062;-59
2022/09/23 15:58:45;;;;;;;31.10;14.90;;;;;;;;;;6200465;28;20053;-59
2022/09/23 16:01:46;;;;;;;35.85;13.82;;;;;;;;;;6200047;28;20666;-60
2022/09/23 16:04:49;;;;;;;21.80;11.45;;;;;;;;;;6193819;28;20129;-59
2022/09/23 16:07:51;;;;;;;22.20;10.32;;;;;;;;;;6197477;28;20488;-59
2022/09/23 16:10:53;;;;;;;22.65;10.02;;;;;;;;;;6198383;28;20054;-58
2022/09/23 16:13:54;;;;;;;20.15;9.98;;;;;;;;;;6198215;28;20074;-61
2022/09/23 16:16:54;;;;;;;18.25;9.18;;;;;;;;;;6192774;28;20060;-59
2022/09/23 16:19:55;;;;;;;17.95;9.05;;;;;;;;;;6197041;28;20042;-59
2022/09/23 16:22:59;;;;;;;23.35;10.50;;;;;;;;;;6193940;28;20143;-60
2022/09/23 16:26:05;;;;;;;18.77;9.75;;;;;;;;;;6196311;28;20420;-59
2022/09/23 16:29:05;;;;;;;19.90;9.93;;;;;;;;;;6194191;28;20046;-59
2022/09/23 16:32:06;;;;;;;21.17;10.20;;;;;;;;;;6200632;28;20103;-57
2022/09/23 16:35:08;;;;;;;24.63;11.48;;;;;;;;;;6193061;28;20439;-59
2022/09/23 16:38:09;;;;;;;21.70;10.80;;;;;;;;;;6196177;28;20140;-57
2022/09/23 16:41:10;;;;;;;23.58;10.18;;;;;;;;;;6198283;28;20053;-58
2022/09/23 16:44:11;;;;;;;22.23;10.10;;;;;;;;;;6195957;28;20429;-59
2022/09/23 16:47:11;;;;;;;23.17;11.68;;;;;;;;;;6192601;28;20056;-59
2022/09/23 16:50:14;;;;;;;18.67;10.70;;;;;;;;;;6196747;28;20068;-59
2022/09/23 16:53:16;;;;;;;23.67;11.02;;;;;;;;;;6180796;28;20053;-66
2022/09/23 16:56:19;;;;;;;36.47;19.10;;;;;;;;;;6192662;28;20076;-58
2022/09/23 16:59:20;;;;;;;36.97;18.38;;;;;;;;;;6198169;28;20549;-60
2022/09/23 17:05:39;;;;;;;24.63;12.93;;;;;;;;;;6196294;28;20050;-58
2022/09/23 17:08:41;;;;;;;26.83;12.65;;;;;;;;;;6199552;28;20061;-58
2022/09/23 17:11:46;;;;;;;28.75;13.50;;;;;;;;;;6198724;28;20043;-59
2022/09/23 17:14:47;;;;;;;31.08;14.70;;;;;;;;;;6199318;28;20180;-59
2022/09/23 17:17:47;;;;;;;25.75;12.50;;;;;;;;;;6193955;28;20046;-57
2022/09/23 17:21:02;;;;;;;35.95;13.57;;;;;;;;;;6197067;28;20050;-59
2022/09/23 17:24:03;;;;;;;26.73;13.13;;;;;;;;;;6198601;28;20050;-56
2022/09/23 17:27:04;;;;;;;23.90;12.73;;;;;;;;;;6196031;28;20466;-64
2022/09/23 17:30:05;;;;;;;33.85;15.32;;;;;;;;;;6199188;28;20045;-58
2022/09/23 17:33:07;;;;;;;39.00;17.57;;;;;;;;;;6194642;28;20058;-57
2022/09/23 17:36:10;;;;;;;33.35;14.27;;;;;;;;;;6190291;28;20046;-56
2022/09/23 17:39:11;;;;;;;33.40;13.63;;;;;;;;;;6193227;28;20176;-58
2022/09/23 17:42:13;;;;;;;34.65;15.07;;;;;;;;;;6194226;28;20158;-59
2022/09/23 17:45:14;;;;;;;;;;;;;;;;;;6198308;28;20141;-59
2022/09/23 17:48:16;;;;;;;31.17;14.65;;;;;;;;;;6195905;28;20513;-62
2022/09/23 17:51:18;;;;;;;;;;;;;;;;;;6198375;28;20149;-59
2022/09/23 17:54:19;;;;;;;47.00;21.20;;;;;;;;;;6194780;28;19933;-60
2022/09/23 17:57:20;;;;;;;45.25;19.85;;;;;;;;;;6193211;28;20417;-58
2022/09/23 18:00:20;;;;;;;49.25;21.05;;;;;;;;;;6197829;28;20050;-57
2022/09/23 18:03:23;;;;;;;46.63;18.85;;;;;;;;;;6195652;28;20628;-58
2022/09/23 18:06:25;;;;;;;;;;;;;;;;;;6193947;28;20492;-57
2022/09/23 18:09:25;;;;;;;52.67;19.75;;;;;;;;;;6194877;28;19936;-52
2022/09/23 18:12:26;;;;;;;63.85;23.52;;;;;;;;;;6197021;28;20057;-58
2022/09/23 18:15:27;;;;;;;60.00;25.88;;;;;;;;;;6192741;28;20064;-56
2022/09/23 18:18:27;;;;;;;61.00;25.00;;;;;;;;;;6194339;28;20050;-58
2022/09/23 18:21:35;;;;;;;73.18;25.27;;;;;;;;;;6196089;28;20140;-57